createdAt,value
2023-04-24T00:00:07.960Z,998.12
2023-04-24T00:05:08.564Z,998.12
2023-04-24T00:10:08.630Z,998.07
2023-04-24T00:15:08.722Z,998.06
2023-04-24T00:20:08.787Z,998.14
2023-04-24T00:25:08.838Z,998.2
2023-04-24T00:30:08.938Z,998.18
2023-04-24T00:35:07.989Z,998.27
2023-04-24T00:40:08.015Z,998.35
2023-04-24T00:45:08.053Z,998.26
2023-04-24T00:50:08.145Z,998.16
2023-04-24T00:55:08.192Z,998.2
2023-04-24T01:00:08.285Z,998.32
2023-04-24T01:05:08.253Z,998.35
2023-04-24T01:10:08.299Z,998.21
2023-04-24T01:15:08.340Z,998.28
2023-04-24T01:20:08.370Z,998.21
2023-04-24T01:25:08.423Z,998.21
2023-04-24T01:30:08.473Z,998.13
2023-04-24T01:35:08.503Z,998.11
2023-04-24T01:40:08.548Z,998.15
2023-04-24T01:45:08.596Z,998.15
2023-04-24T01:50:08.638Z,998.26
2023-04-24T01:55:08.721Z,998.26
2023-04-24T02:00:08.800Z,998.22
2023-04-24T02:05:08.873Z,998.28
2023-04-24T02:10:08.945Z,998.22
2023-04-24T02:15:08.019Z,998.22
2023-04-24T02:20:08.112Z,998.24
2023-04-24T02:25:08.146Z,998.24
2023-04-24T02:30:08.225Z,998.17
2023-04-24T02:35:08.299Z,998.23
2023-04-24T02:40:08.419Z,998.19
2023-04-24T02:45:08.469Z,998.28
2023-04-24T02:50:08.507Z,998.18
2023-04-24T02:55:08.572Z,998.25
2023-04-24T03:00:08.570Z,998.17
2023-04-24T03:05:08.612Z,998.15
2023-04-24T03:10:08.633Z,998.17
2023-04-24T03:15:08.666Z,998.21
2023-04-24T03:20:08.739Z,998.21
2023-04-24T03:25:08.782Z,998.28
2023-04-24T03:30:08.843Z,998.39
2023-04-24T03:35:08.902Z,998.46
2023-04-24T03:40:08.980Z,998.46
2023-04-24T03:45:08.023Z,998.35
2023-04-24T03:50:08.115Z,998.35
2023-04-24T03:55:08.194Z,998.42
2023-04-24T04:00:08.273Z,998.52
2023-04-24T04:05:02.696Z,998.58
2023-04-24T04:10:02.862Z,998.46
2023-04-24T04:15:02.992Z,998.47
2023-04-24T04:20:02.115Z,998.47
2023-04-24T04:25:02.261Z,998.58
2023-04-24T04:30:02.924Z,998.61
2023-04-24T04:35:02.119Z,998.65
2023-04-24T04:40:02.368Z,998.75
2023-04-24T04:45:02.513Z,998.79
2023-04-24T04:50:02.612Z,998.79
2023-04-24T04:55:02.878Z,998.82
2023-04-24T05:00:03.018Z,998.82
2023-04-24T05:05:02.264Z,998.82
2023-04-24T05:10:02.422Z,998.82
2023-04-24T05:15:02.579Z,998.78
2023-04-24T05:20:02.717Z,998.8
2023-04-24T05:25:02.951Z,998.82
2023-04-24T05:30:02.089Z,998.83
2023-04-24T05:35:02.274Z,998.85
2023-04-24T05:40:02.497Z,998.86
2023-04-24T05:45:02.861Z,998.79
2023-04-24T05:50:03.041Z,998.87
2023-04-24T05:55:02.260Z,998.86
2023-04-24T06:00:02.412Z,998.88
2023-04-24T06:05:02.874Z,998.94
2023-04-24T06:10:02.263Z,998.91
2023-04-24T06:15:02.387Z,998.92
2023-04-24T06:20:02.638Z,998.89
2023-04-24T06:25:02.758Z,998.88
2023-04-24T06:30:02.910Z,998.97
2023-04-24T06:35:03.046Z,999.05
2023-04-24T06:40:02.240Z,999.05
2023-04-24T06:45:02.357Z,999.23
2023-04-24T06:50:02.597Z,999.17
2023-04-24T06:55:02.737Z,999.22
2023-04-24T07:00:02.992Z,999.39
2023-04-24T07:05:02.105Z,999.35
2023-04-24T07:10:02.248Z,999.38
2023-04-24T07:15:02.352Z,999.28
2023-04-24T07:20:02.606Z,999.33
2023-04-24T07:25:02.857Z,999.35
2023-04-24T07:30:02.976Z,999.45
2023-04-24T07:35:02.149Z,999.48
2023-04-24T07:40:02.404Z,999.58
2023-04-24T07:45:02.628Z,999.68
2023-04-24T07:50:02.824Z,999.79
2023-04-24T07:55:02.970Z,999.85
2023-04-24T08:00:02.155Z,999.85
2023-04-24T08:05:02.785Z,999.85
2023-04-24T08:10:02.169Z,1000.11
2023-04-24T08:15:02.421Z,1000.15
2023-04-24T08:20:02.827Z,1000.29
2023-04-24T08:25:02.194Z,1000.29
2023-04-24T08:30:02.438Z,1000.55
2023-04-24T08:35:02.650Z,1000.63
2023-04-24T08:40:02.827Z,1000.73
2023-04-24T08:45:02.140Z,1000.73
2023-04-24T08:50:02.314Z,1000.89
2023-04-24T08:55:02.498Z,1001.07
2023-04-24T09:00:02.696Z,1001.33
2023-04-24T09:05:02.949Z,1001.49
2023-04-24T09:10:02.213Z,1001.56
2023-04-24T09:15:02.422Z,1001.69
2023-04-24T09:20:02.575Z,1001.88
2023-04-24T09:25:02.779Z,1002.11
2023-04-24T09:30:03.106Z,1002.11
2023-04-24T09:35:02.277Z,1002.34
2023-04-24T09:40:02.402Z,1002.44
2023-04-24T09:50:02.554Z,1002.6
2023-04-24T09:55:02.722Z,1002.69
2023-04-24T10:00:02.845Z,1002.84
2023-04-24T10:05:03.125Z,1002.98
2023-04-24T10:10:02.408Z,1003.05
2023-04-24T10:15:02.567Z,1003.24
2023-04-24T10:20:02.801Z,1003.34
2023-04-24T10:25:02.967Z,1003.34
2023-04-24T10:30:02.142Z,1003.47
2023-04-24T10:35:02.291Z,1003.54
2023-04-24T10:40:02.499Z,1003.64
2023-04-24T10:45:02.769Z,1003.67
2023-04-24T10:50:02.933Z,1003.8
2023-04-24T10:55:02.103Z,1003.75
2023-04-24T11:00:02.310Z,1003.94
2023-04-24T11:05:02.618Z,1003.92
2023-04-24T11:10:02.829Z,1003.95
2023-04-24T11:15:03.651Z,1004.0
2023-04-24T11:20:26.864Z,1004.0
2023-04-24T11:25:02.770Z,1004.01
2023-04-24T11:30:03.239Z,1004.04
2023-04-24T11:35:02.837Z,1004.27
2023-04-24T11:40:03.285Z,1004.25
2023-04-24T11:45:03.085Z,1004.39
2023-04-24T11:50:03.181Z,1004.53
2023-04-24T11:55:02.792Z,1004.61
2023-04-24T12:00:02.358Z,1004.7
2023-04-24T12:05:03.208Z,1004.83
2023-04-24T12:10:03.126Z,1004.83
2023-04-24T12:15:02.861Z,1004.94
2023-04-24T12:20:02.221Z,1004.94
2023-04-24T12:25:02.363Z,1005.03
2023-04-24T12:30:02.570Z,1005.17
2023-04-24T12:35:02.795Z,1005.15
2023-04-24T12:40:06.852Z,1005.15
2023-04-24T12:45:05.191Z,1005.28
2023-04-24T12:50:02.409Z,1005.26
2023-04-24T12:55:02.539Z,1005.44
2023-04-24T13:00:02.765Z,1005.5
2023-04-24T13:05:02.975Z,1005.51
2023-04-24T13:10:02.430Z,1005.63
2023-04-24T13:15:02.624Z,1005.53
2023-04-24T13:20:02.707Z,1005.68
2023-04-24T13:25:03.050Z,1005.65
2023-04-24T13:30:02.328Z,1005.78
2023-04-24T13:35:02.577Z,1005.79
2023-04-24T13:40:02.814Z,1006.0
2023-04-24T13:45:11.078Z,1005.95
2023-04-24T13:50:03.016Z,1006.0
2023-04-24T13:55:02.142Z,1006.11
2023-04-24T14:00:02.484Z,1006.05
2023-04-24T14:05:02.779Z,1005.99
2023-04-24T14:10:02.209Z,1005.95
2023-04-24T14:15:02.514Z,1006.02
2023-04-24T14:20:02.775Z,1006.02
2023-04-24T14:25:02.967Z,1005.88
2023-04-24T14:30:02.251Z,1005.92
2023-04-24T14:35:02.462Z,1005.98
2023-04-24T14:40:29.418Z,1006.08
2023-04-24T14:45:03.102Z,1006.02
2023-04-24T14:50:02.273Z,1006.12
2023-04-24T14:55:02.449Z,1006.09
2023-04-24T15:00:02.614Z,1006.2
2023-04-24T15:05:02.983Z,1006.2
2023-04-24T15:10:02.218Z,1006.26
2023-04-24T15:15:02.413Z,1006.31
2023-04-24T15:20:02.686Z,1006.23
2023-04-24T15:25:02.867Z,1006.33
2023-04-24T15:30:03.004Z,1006.42
2023-04-24T15:35:08.361Z,1006.4
2023-04-24T15:40:02.168Z,1006.35
2023-04-24T15:45:02.278Z,1006.51
2023-04-24T15:50:02.405Z,1006.42
2023-04-24T15:55:03.481Z,1006.53
2023-04-24T16:00:02.705Z,1006.56
2023-04-24T16:05:03.006Z,1006.56
2023-04-24T16:10:02.400Z,1006.69
2023-04-24T16:15:02.898Z,1006.7
2023-04-24T16:20:03.041Z,1006.75
2023-04-24T16:25:02.176Z,1006.77
2023-04-24T16:30:02.364Z,1006.74
2023-04-24T16:35:02.623Z,1006.7
2023-04-24T16:40:02.949Z,1006.76
2023-04-24T16:45:02.150Z,1006.73
2023-04-24T16:50:02.661Z,1006.79
2023-04-24T16:55:02.801Z,1006.96
2023-04-24T17:00:03.060Z,1006.88
2023-04-24T17:05:02.631Z,1006.88
2023-04-24T17:10:02.217Z,1006.86
2023-04-24T17:15:02.374Z,1006.93
2023-04-24T17:20:11.562Z,1006.9
2023-04-24T17:25:02.243Z,1006.89
2023-04-24T17:30:02.382Z,1006.98
2023-04-24T17:35:02.612Z,1006.97
2023-04-24T17:40:02.759Z,1006.9
2023-04-24T17:45:02.974Z,1006.94
2023-04-24T17:50:02.076Z,1007.03
2023-04-24T17:55:02.265Z,1007.07
2023-04-24T18:00:02.353Z,1007.08
2023-04-24T18:05:02.651Z,1007.13
2023-04-24T18:10:02.810Z,1007.27
2023-04-24T18:15:13.642Z,1007.17
2023-04-24T18:20:02.757Z,1007.19
2023-04-24T18:25:03.025Z,1007.24
2023-04-24T18:30:02.416Z,1007.26
2023-04-24T18:35:02.691Z,1007.34
2023-04-24T18:40:03.050Z,1007.38
2023-04-24T18:45:02.287Z,1007.42
2023-04-24T18:50:02.491Z,1007.44
2023-04-24T18:55:02.637Z,1007.44
2023-04-24T19:00:02.872Z,1007.65
2023-04-24T19:05:03.010Z,1007.69
2023-04-24T19:10:02.191Z,1007.73
2023-04-24T19:15:02.318Z,1007.73
2023-04-24T19:20:02.801Z,1007.73
2023-04-24T19:25:03.428Z,1007.88
2023-04-24T19:30:02.738Z,1007.94
2023-04-24T19:35:03.046Z,1008.04
2023-04-24T19:40:02.225Z,1008.04
2023-04-24T19:45:02.362Z,1008.07
2023-04-24T19:50:02.508Z,1008.16
2023-04-24T19:55:02.727Z,1008.1
2023-04-24T20:00:02.933Z,1008.11
2023-04-24T20:05:03.279Z,1008.16
2023-04-24T20:10:02.528Z,1008.08
2023-04-24T20:15:02.786Z,1008.06
2023-04-24T20:20:03.018Z,1008.08
2023-04-24T20:25:02.230Z,1008.09
2023-04-24T20:30:03.005Z,1008.1
2023-04-24T20:35:02.146Z,1008.11
2023-04-24T20:40:02.332Z,1008.11
2023-04-24T20:45:02.625Z,1008.02
2023-04-24T20:50:02.752Z,1008.02
2023-04-24T20:55:02.929Z,1008.02
2023-04-24T21:00:02.127Z,1008.0
2023-04-24T21:05:15.120Z,1008.01
2023-04-24T21:10:08.142Z,1008.06
2023-04-24T21:15:08.197Z,1007.97
2023-04-24T21:20:08.492Z,1008.02
2023-04-24T21:25:08.575Z,1007.94
2023-04-24T21:30:08.729Z,1008.03
2023-04-24T21:35:08.844Z,1008.0
2023-04-24T21:40:08.925Z,1008.0
2023-04-24T21:45:09.004Z,1007.99
2023-04-24T21:50:08.088Z,1008.04
2023-04-24T21:55:09.792Z,1008.07
2023-04-24T22:00:08.838Z,1008.05
2023-04-24T22:05:08.840Z,1008.0
2023-04-24T22:10:08.896Z,1007.94
2023-04-24T22:15:08.958Z,1007.99
2023-04-24T22:20:08.027Z,1007.99
2023-04-24T22:25:08.128Z,1008.04
2023-04-24T22:30:08.140Z,1008.04
2023-04-24T22:35:08.162Z,1008.09
2023-04-24T22:40:08.276Z,1008.09
2023-04-24T22:45:08.295Z,1008.13
2023-04-24T22:50:08.348Z,1008.13
2023-04-24T22:55:08.390Z,1008.13
2023-04-24T23:01:14.491Z,1008.13
2023-04-24T23:05:08.531Z,1008.17
2023-04-24T23:10:08.305Z,1008.07
2023-04-24T23:15:08.315Z,1008.14
2023-04-24T23:20:08.395Z,1008.18
2023-04-24T23:25:08.445Z,1008.14
2023-04-24T23:30:08.537Z,1008.2
2023-04-24T23:35:08.619Z,1008.24
2023-04-24T23:40:08.681Z,1008.29
2023-04-24T23:45:08.672Z,1008.34
2023-04-24T23:50:08.719Z,1008.28
2023-04-24T23:55:08.774Z,1008.22
